Historique des mesures à Cassis (13260), France
Quotidien Résumé Décembre 11, 2017 Unités:  Métrique    US   Métrique/US
« Précédent (Jour)
Suivant (Jour) »
Quotidien Hebdomadaire Mensuel Annuel Période au choix
  Maximum: Minimum: Moyenne:
Température: TemperatureC °C 7.4 °C 11.7 °C
Point de rosée: DewpointC °C 4.9 °C 9.9 °C
Humidité: Humidity % 82 % 85 %
Vitesse du vent: 0 km/h 0 km/h 1.9 km/h
Rafales: 0 km/h - -
Vent:- - WNW
Pression: PressurehPa hPa 986.7 hPa -
Précipitations: 3.0 mm    
Historical Graphs
 
 
Mesures pour : Décembre 11, 2017
Heure Temperature Point de rosée Pression Vent Vitesse du vent Rafales Humidité Pluie (par heure) Conditions
TemperatureC °C DewpointC °C PressurehPa hPa Calm     Humidity % HourlyPrecipMM mm SoftwareType W/m2
00:10 12.9 °C 11.3 °C 994.1 hPa Calm     90 % 0.0 mm open2300-1.11 W/m2
01:11 12.9 °C 11.3 °C 993.1 hPa Calm     90 % 0.0 mm open2300-1.11 W/m2
02:10 12.9 °C 11.3 °C 992.4 hPa Calm     90 % 0.0 mm open2300-1.11 W/m2
03:10 12.9 °C 11.3 °C 992.1 hPa Calm     90 % 0.0 mm open2300-1.11 W/m2
05:10 13.4 °C 11.8 °C 989.1 hPa Calm     90 % 0.0 mm open2300-1.11 W/m2
06:10 13.4 °C 11.8 °C 988.4 hPa NNW 2.3 km/h 6.9 km/h 90 % 0.0 mm open2300-1.11 W/m2
08:10 13.3 °C 11.7 °C 988.0 hPa Calm     90 % 0.5 mm open2300-1.11 W/m2
09:10 13.5 °C 12.1 °C 987.7 hPa SW 5.6 km/h 5.6 km/h 91 % 0.0 mm open2300-1.11 W/m2
10:10 13.6 °C 12.2 °C 987.7 hPa Calm     91 % 0.0 mm open2300-1.11 W/m2
11:10 13.6 °C 12.0 °C 988.0 hPa Calm     90 % 0.0 mm open2300-1.11 W/m2
12:10 13.6 °C 12.0 °C 987.7 hPa Calm     90 % 0.5 mm open2300-1.11 W/m2
13:10 13.6 °C 12.2 °C 987.0 hPa Calm     91 % 1.0 mm open2300-1.11 W/m2
14:10 13.8 °C 12.3 °C 986.7 hPa Calm   8 km/h 91 % 0.0 mm open2300-1.11 W/m2
15:10 13.9 °C 12.4 °C 986.7 hPa Calm     91 % 0.5 mm open2300-1.11 W/m2
16:10 13.8 °C 12.3 °C 987.0 hPa Calm   3.4 km/h 91 % 0.0 mm open2300-1.11 W/m2
17:10 11.8 °C 10.2 °C 987.7 hPa NW 17.9 km/h 21.6 km/h 90 % 0.0 mm open2300-1.11 W/m2
18:10 10.8 °C 8.7 °C 990.1 hPa Calm     87 % 0.0 mm open2300-1.11 W/m2
19:10 9.9 °C 7.6 °C 991.4 hPa NW 20.3 km/h 23.8 km/h 86 % 0.0 mm open2300-1.11 W/m2
20:10 9.7 °C 6.7 °C 992.8 hPa Calm   12.7 km/h 82 % 0.0 mm open2300-1.11 W/m2
21:10 9.4 °C 6.4 °C 995.1 hPa Calm     82 % 0.0 mm open2300-1.11 W/m2
22:10 8.5 °C 5.8 °C 996.5 hPa Calm     83 % 0.0 mm open2300-1.11 W/m2
23:10 7.4 °C 4.9 °C 997.9 hPa Calm     84 % 0.0 mm open2300-1.11 W/m2
Observations météo à CASSIS
WU-History script by Weather Underground - 1 mb